Airfield :
LOGIN :

Register | Disclaimer

   EN    FR    IT 

 










Legend :    VFR   Marginal VFR   IFR   Intensive IFR   Very Intensive IFR
Visi :
Ceiling :
>= 8 km
>= 3000ft
5 to 8 km
1000 to 3000 ft
1500m to 5 km
500 to 1000 ft
800 to 1500m
200 to 500 ft
< 800m
< 200 ft
Symbols :   Thunderstorms  Fog  Heavy snow  Heavy precipitations  Wind > 20 kt
SIGMETs :     Misc.  Thunderstorms  Icing  Turbulence  Mountain Waves  Volcanic Ashes







- Airport Elevation : 776 ft
- IATA code : RMS


ETAR - Ramstein Air Base

CURRENT METAR :
  • 242056Z AUTO 00000KT 9999 CLR 03/01 A3023 RMK AO2 SLP248 T00260011 55001 $

EXPIRED METARs :
  • 241956Z AUTO 00000KT 9999 CLR 04/01 A3024 RMK AO2 SLP252 T00370014 $

TAF TAF ETAR
Valid from the 24 at 18:00 until the 26 at 00:00 UTC


241803Z 2418/2600 34009KT 9999 BKN040 QNH3023INS
BECMG 2423/2424 29009KT 9999 SCT030 QNH3019INS
BECMG 2507/2508 28012G20KT 8000 -SHRA BKN030 620405 QNH3018INS
BECMG 2509/2510 31012G25KT 8000 -SHRA BKN030 620405 520003 QNH3021INS
BECMG 2515/2516 32012G20KT 9999 NSW BKN030 620402 QNH3021INS
BECMG 2519/2520 34010G18KT 9999 BKN020 620202 QNH3027INS TX11/2514Z TNM02/2505Z
No reported NOTAMs for that airfield.



MET'MAP, your aeronautical weather chart ! - Copyright ORBIFLY December 2007 - Disclaimer

ORBIFLY MET'MAP TEAM :

Programming & Development : Alexandra Zaïnal
Concept & Development : Baudouin d'Aumeries
Co-Development & Prog : Marc-Olivier Méhu
Technical & hardware support : Manuel Goepfert

Contact : metmap@orbifly.com




SOURCES & CREDITS :

   NOAA